Kugluktuk Airport
CYCO : rendu visible

Aérodrome :











RETROUVEZ-NOUS SUR...

 
LOGIN :

S'inscrire | Disclaimer

   EN    FR    IT 

 









Légende :    VFR   VFR Marginal   IFR   IFR Intensif   IFR Très Intensif
Visi : 
Plafond : 
>= 8 km
>= 3000ft
5 à 8 km
1000 à 3000 ft
1500m à 5 km
500 à 1000 ft
800 à 1500m
200 à 500 ft
< 800m
< 200 ft
Symboles :   Orages  Brouillard  Fortes neiges  Fortes précipitations  Vent > 20 kt






- Altitude de l'aérodrome : 74 ft
- Code IATA : YCO


CYCO - Kugluktuk

DERNIER METAR :
  • 170900Z 25005KT 4SM -SN OVC030 M18/M20 A3000 RMK SC8 /S01/ SLP164

METARs EXPIRÉS :
  • 170800Z 22008KT 4SM -SN OVC036 M18/M21 A3000 RMK SC8 SLP165
  • 170700Z 21008KT 5SM -SN FEW010 OVC035 M19/M21 A3001 RMK SF2SC6 SLP167

TAF TAF CYCO
Valide du 17 à 07h jusqu'au 17 à 19h UTC


170638Z 1707/1719 22007KT P6SM -SN FEW010 SCT020 BKN040
TEMPO 1707/1719 5SM -SN SCT010 BKN020 OVC040 RMK NXT FCST BY 171300Z



MET'MAP, la Météo Aéronautique d'un coup d'oeil ! - Copyright ORBIFLY Décembre 2007 - Disclaimer

ORBIFLY MET'MAP TEAM :

Programmation & Développement : Alexandra Zaïnal
Conception & Développement : Baudouin d'Aumeries
Co-Programmation & Développement : Marc-Olivier Méhu
Soutien technique & logistique : Manuel Goepfert

Contact : metmap@orbifly.com




SOURCES & CREDITS :

   NOAA       Earth
Advisory